sensor_id;sensor_type;location;lat;lon;timestamp;pressure;altitude;pressure_sealevel;temperature;humidity
69737;BME280;64476;55.004;73.342;2023-07-13T00:02:29;99797.66;;;23.78;33.93
69737;BME280;64476;55.004;73.342;2023-07-13T00:05:31;99814.31;;;23.80;34.11
69737;BME280;64476;55.004;73.342;2023-07-13T00:08:34;99798.69;;;23.72;33.99
69737;BME280;64476;55.004;73.342;2023-07-13T00:11:38;99811.28;;;23.72;33.75
69737;BME280;64476;55.004;73.342;2023-07-13T00:14:39;99807.03;;;23.76;34.11
69737;BME280;64476;55.004;73.342;2023-07-13T00:17:42;99798.44;;;23.74;34.25
69737;BME280;64476;55.004;73.342;2023-07-13T00:20:46;99777.75;;;23.64;34.35
69737;BME280;64476;55.004;73.342;2023-07-13T00:23:48;99796.06;;;23.82;34.44
69737;BME280;64476;55.004;73.342;2023-07-13T00:26:50;99793.66;;;23.81;34.88
69737;BME280;64476;55.004;73.342;2023-07-13T00:29:52;99796.59;;;23.84;35.23
69737;BME280;64476;55.004;73.342;2023-07-13T00:32:54;99785.56;;;23.76;34.61
69737;BME280;64476;55.004;73.342;2023-07-13T00:35:56;99797.41;;;23.85;34.55
69737;BME280;64476;55.004;73.342;2023-07-13T00:42:07;99787.47;;;23.85;34.62
69737;BME280;64476;55.004;73.342;2023-07-13T00:48:26;99782.91;;;23.91;34.38
69737;BME280;64476;55.004;73.342;2023-07-13T00:51:35;99755.53;;;23.79;34.23
69737;BME280;64476;55.004;73.342;2023-07-13T00:54:41;99792.59;;;24.02;34.22
69737;BME280;64476;55.004;73.342;2023-07-13T00:57:46;99794.72;;;24.00;34.44
69737;BME280;64476;55.004;73.342;2023-07-13T01:00:51;99786.94;;;24.04;34.31
69737;BME280;64476;55.004;73.342;2023-07-13T01:04:27;99799.81;;;24.12;34.54
69737;BME280;64476;55.004;73.342;2023-07-13T01:07:30;99805.47;;;24.15;34.51
69737;BME280;64476;55.004;73.342;2023-07-13T01:10:32;99839.53;;;24.20;34.95
69737;BME280;64476;55.004;73.342;2023-07-13T01:13:39;99835.53;;;24.23;35.57
69737;BME280;64476;55.004;73.342;2023-07-13T01:16:45;99811.91;;;24.14;35.67
69737;BME280;64476;55.004;73.342;2023-07-13T01:19:48;99825.84;;;24.16;35.98
69737;BME280;64476;55.004;73.342;2023-07-13T01:22:50;99823.16;;;24.16;36.57
69737;BME280;64476;55.004;73.342;2023-07-13T01:25:53;99810.03;;;24.10;35.89
69737;BME280;64476;55.004;73.342;2023-07-13T01:28:56;99795.81;;;23.99;35.93
69737;BME280;64476;55.004;73.342;2023-07-13T01:31:59;99803.84;;;24.14;35.71
69737;BME280;64476;55.004;73.342;2023-07-13T01:35:36;99777.03;;;24.14;35.71
69737;BME280;64476;55.004;73.342;2023-07-13T01:42:12;99787.22;;;24.48;35.13
69737;BME280;64476;55.004;73.342;2023-07-13T01:45:14;99758.75;;;24.47;34.96
69737;BME280;64476;55.004;73.342;2023-07-13T01:48:19;99750.13;;;24.65;34.85
69737;BME280;64476;55.004;73.342;2023-07-13T01:51:24;99768.03;;;24.91;35.33
69737;BME280;64476;55.004;73.342;2023-07-13T01:54:26;99765.31;;;25.01;34.67
69737;BME280;64476;55.004;73.342;2023-07-13T01:57:28;99765.84;;;25.13;35.03
69737;BME280;64476;55.004;73.342;2023-07-13T02:00:29;99753.69;;;25.21;34.36
69737;BME280;64476;55.004;73.342;2023-07-13T02:03:31;99752.84;;;25.25;34.43
69737;BME280;64476;55.004;73.342;2023-07-13T02:06:33;99766.00;;;25.27;34.50
69737;BME280;64476;55.004;73.342;2023-07-13T02:09:41;99757.69;;;25.23;33.93
69737;BME280;64476;55.004;73.342;2023-07-13T02:12:44;99753.06;;;25.34;33.32
69737;BME280;64476;55.004;73.342;2023-07-13T02:15:46;99749.72;;;25.52;33.28
69737;BME280;64476;55.004;73.342;2023-07-13T02:18:51;99745.41;;;25.62;32.74
69737;BME280;64476;55.004;73.342;2023-07-13T02:21:53;99742.16;;;25.65;32.76
69737;BME280;64476;55.004;73.342;2023-07-13T02:24:55;99726.56;;;25.62;32.25
69737;BME280;64476;55.004;73.342;2023-07-13T02:27:57;99726.50;;;25.72;32.51
69737;BME280;64476;55.004;73.342;2023-07-13T02:31:07;99709.81;;;25.70;32.00
69737;BME280;64476;55.004;73.342;2023-07-13T02:34:09;99727.19;;;25.88;32.00
69737;BME280;64476;55.004;73.342;2023-07-13T02:37:12;99733.78;;;26.00;32.53
69737;BME280;64476;55.004;73.342;2023-07-13T02:40:13;99736.91;;;26.13;32.34
69737;BME280;64476;55.004;73.342;2023-07-13T02:43:19;99723.16;;;26.14;31.37
69737;BME280;64476;55.004;73.342;2023-07-13T02:46:24;99715.34;;;26.18;30.79
69737;BME280;64476;55.004;73.342;2023-07-13T02:49:27;99716.00;;;26.33;30.83
69737;BME280;64476;55.004;73.342;2023-07-13T02:52:28;99714.06;;;26.39;31.03
69737;BME280;64476;55.004;73.342;2023-07-13T02:55:30;99727.25;;;26.65;31.55
69737;BME280;64476;55.004;73.342;2023-07-13T02:58:32;99724.81;;;26.63;31.23
69737;BME280;64476;55.004;73.342;2023-07-13T03:01:34;99696.63;;;26.55;31.26
69737;BME280;64476;55.004;73.342;2023-07-13T03:04:37;99726.06;;;26.76;31.49
69737;BME280;64476;55.004;73.342;2023-07-13T03:07:42;99728.56;;;26.91;31.72
69737;BME280;64476;55.004;73.342;2023-07-13T03:10:46;99729.69;;;27.09;31.58
69737;BME280;64476;55.004;73.342;2023-07-13T03:13:48;99702.81;;;27.23;31.59
69737;BME280;64476;55.004;73.342;2023-07-13T03:16:50;99714.91;;;27.44;30.68
69737;BME280;64476;55.004;73.342;2023-07-13T03:19:54;99718.66;;;27.62;30.52
69737;BME280;64476;55.004;73.342;2023-07-13T03:22:56;99719.84;;;27.75;31.16
69737;BME280;64476;55.004;73.342;2023-07-13T03:26:10;99692.41;;;27.87;30.77
69737;BME280;64476;55.004;73.342;2023-07-13T03:29:14;99698.91;;;27.99;30.15
69737;BME280;64476;55.004;73.342;2023-07-13T03:32:17;99687.03;;;28.01;29.87
69737;BME280;64476;55.004;73.342;2023-07-13T03:35:19;99706.28;;;28.27;29.63
69737;BME280;64476;55.004;73.342;2023-07-13T03:38:21;99710.03;;;28.44;29.47
69737;BME280;64476;55.004;73.342;2023-07-13T03:41:24;99709.72;;;28.60;29.49
69737;BME280;64476;55.004;73.342;2023-07-13T03:44:28;99695.41;;;28.59;29.54
69737;BME280;64476;55.004;73.342;2023-07-13T03:47:34;99704.78;;;28.76;29.49
69737;BME280;64476;55.004;73.342;2023-07-13T03:50:39;99719.00;;;28.95;29.43
69737;BME280;64476;55.004;73.342;2023-07-13T03:53:43;99709.75;;;29.10;29.36
69737;BME280;64476;55.004;73.342;2023-07-13T03:56:46;99711.25;;;29.16;28.36
69737;BME280;64476;55.004;73.342;2023-07-13T03:59:52;99692.50;;;29.19;27.38
69737;BME280;64476;55.004;73.342;2023-07-13T04:02:54;99707.56;;;29.34;28.28
69737;BME280;64476;55.004;73.342;2023-07-13T04:05:56;99719.84;;;29.54;28.90
69737;BME280;64476;55.004;73.342;2023-07-13T04:09:02;99717.09;;;29.68;28.21
69737;BME280;64476;55.004;73.342;2023-07-13T04:12:07;99715.06;;;29.74;27.83
69737;BME280;64476;55.004;73.342;2023-07-13T04:15:09;99707.72;;;29.74;28.47
69737;BME280;64476;55.004;73.342;2023-07-13T04:18:43;99695.53;;;29.85;28.91
69737;BME280;64476;55.004;73.342;2023-07-13T04:22:17;99724.81;;;30.06;28.33
69737;BME280;64476;55.004;73.342;2023-07-13T04:25:21;99688.81;;;30.05;28.04
69737;BME280;64476;55.004;73.342;2023-07-13T04:28:24;99696.22;;;30.22;28.07
69737;BME280;64476;55.004;73.342;2023-07-13T04:31:26;99714.25;;;30.35;27.14
69737;BME280;64476;55.004;73.342;2023-07-13T04:34:29;99647.63;;;29.95;27.44
69737;BME280;64476;55.004;73.342;2023-07-13T04:37:31;99710.81;;;30.44;27.84
69737;BME280;64476;55.004;73.342;2023-07-13T04:40:33;99693.31;;;30.50;27.23
69737;BME280;64476;55.004;73.342;2023-07-13T04:43:35;99708.34;;;30.65;27.24
69737;BME280;64476;55.004;73.342;2023-07-13T04:46:37;99711.25;;;30.77;27.27
69737;BME280;64476;55.004;73.342;2023-07-13T04:49:39;99708.88;;;30.84;27.10
69737;BME280;64476;55.004;73.342;2023-07-13T04:52:45;99691.94;;;30.87;27.09
69737;BME280;64476;55.004;73.342;2023-07-13T04:58:59;99706.06;;;31.15;26.75
69737;BME280;64476;55.004;73.342;2023-07-13T05:02:01;99711.16;;;31.34;26.07
69737;BME280;64476;55.004;73.342;2023-07-13T05:05:03;99715.63;;;31.39;25.66
69737;BME280;64476;55.004;73.342;2023-07-13T05:08:05;99712.31;;;31.50;25.99
69737;BME280;64476;55.004;73.342;2023-07-13T05:11:08;99720.41;;;31.68;25.37
69737;BME280;64476;55.004;73.342;2023-07-13T05:14:13;99689.13;;;31.53;25.36
69737;BME280;64476;55.004;73.342;2023-07-13T05:17:28;99695.47;;;31.74;24.56
69737;BME280;64476;55.004;73.342;2023-07-13T05:20:30;99711.09;;;31.95;24.00
69737;BME280;64476;55.004;73.342;2023-07-13T05:26:45;99714.56;;;32.21;24.51
69737;BME280;64476;55.004;73.342;2023-07-13T05:29:46;99707.13;;;32.31;23.94
69737;BME280;64476;55.004;73.342;2023-07-13T05:32:48;99706.31;;;32.39;24.36
69737;BME280;64476;55.004;73.342;2023-07-13T05:35:50;99688.75;;;32.36;24.14
69737;BME280;64476;55.004;73.342;2023-07-13T05:38:52;99703.34;;;32.61;23.75
69737;BME280;64476;55.004;73.342;2023-07-13T05:41:54;99690.81;;;32.69;23.71
69737;BME280;64476;55.004;73.342;2023-07-13T05:44:55;99688.69;;;32.74;23.85
69737;BME280;64476;55.004;73.342;2023-07-13T05:47:57;99665.34;;;32.73;24.20
69737;BME280;64476;55.004;73.342;2023-07-13T05:50:58;99676.25;;;32.94;23.79
69737;BME280;64476;55.004;73.342;2023-07-13T05:54:00;99674.13;;;33.00;23.84
69737;BME280;64476;55.004;73.342;2023-07-13T05:57:02;99671.94;;;33.14;23.69
69737;BME280;64476;55.004;73.342;2023-07-13T06:00:05;99671.00;;;33.31;23.94
69737;BME280;64476;55.004;73.342;2023-07-13T06:03:19;99665.31;;;33.45;23.54
69737;BME280;64476;55.004;73.342;2023-07-13T06:06:21;99664.41;;;33.53;23.22
69737;BME280;64476;55.004;73.342;2023-07-13T06:09:22;99644.97;;;33.42;23.79
69737;BME280;64476;55.004;73.342;2023-07-13T06:12:25;99668.63;;;33.63;23.28
69737;BME280;64476;55.004;73.342;2023-07-13T06:15:26;99657.41;;;33.64;23.71
69737;BME280;64476;55.004;73.342;2023-07-13T06:18:29;99648.69;;;33.71;23.61
69737;BME280;64476;55.004;73.342;2023-07-13T06:21:30;99660.50;;;33.87;22.78
69737;BME280;64476;55.004;73.342;2023-07-13T06:24:32;99663.03;;;33.92;22.09
69737;BME280;64476;55.004;73.342;2023-07-13T06:27:34;99648.06;;;33.99;23.27
69737;BME280;64476;55.004;73.342;2023-07-13T06:30:38;99645.91;;;34.04;22.77
69737;BME280;64476;55.004;73.342;2023-07-13T06:33:40;99619.78;;;34.03;22.78
69737;BME280;64476;55.004;73.342;2023-07-13T06:36:43;99630.44;;;34.21;22.76
69737;BME280;64476;55.004;73.342;2023-07-13T06:39:45;99618.41;;;34.22;22.83
69737;BME280;64476;55.004;73.342;2023-07-13T06:42:47;99620.47;;;34.49;22.76
69737;BME280;64476;55.004;73.342;2023-07-13T06:45:49;99626.88;;;34.69;20.87
69737;BME280;64476;55.004;73.342;2023-07-13T06:48:52;99626.28;;;34.88;21.69
69737;BME280;64476;55.004;73.342;2023-07-13T06:51:54;99613.41;;;34.88;20.42
69737;BME280;64476;55.004;73.342;2023-07-13T06:55:01;99606.50;;;34.91;21.70
69737;BME280;64476;55.004;73.342;2023-07-13T06:58:08;99610.91;;;34.96;22.55
69737;BME280;64476;55.004;73.342;2023-07-13T07:01:10;99625.78;;;34.98;22.87
69737;BME280;64476;55.004;73.342;2023-07-13T07:04:11;99620.22;;;34.95;22.91
69737;BME280;64476;55.004;73.342;2023-07-13T07:07:13;99614.81;;;34.82;21.59
69737;BME280;64476;55.004;73.342;2023-07-13T07:10:30;99612.56;;;34.72;21.07
69737;BME280;64476;55.004;73.342;2023-07-13T07:13:33;99573.63;;;34.47;21.38
69737;BME280;64476;55.004;73.342;2023-07-13T07:16:34;99620.94;;;34.79;20.89
69737;BME280;64476;55.004;73.342;2023-07-13T07:19:38;99602.91;;;34.62;20.92
69737;BME280;64476;55.004;73.342;2023-07-13T07:22:39;99578.66;;;34.45;20.68
69737;BME280;64476;55.004;73.342;2023-07-13T07:25:45;99595.66;;;34.66;20.51
69737;BME280;64476;55.004;73.342;2023-07-13T07:28:47;99613.69;;;34.83;19.80
69737;BME280;64476;55.004;73.342;2023-07-13T07:31:49;99612.84;;;34.95;19.74
69737;BME280;64476;55.004;73.342;2023-07-13T07:35:22;99609.13;;;35.16;20.25
69737;BME280;64476;55.004;73.342;2023-07-13T07:38:24;99583.06;;;35.18;19.66
69737;BME280;64476;55.004;73.342;2023-07-13T07:41:26;99601.81;;;35.48;19.93
69737;BME280;64476;55.004;73.342;2023-07-13T07:44:28;99588.16;;;35.48;19.98
69737;BME280;64476;55.004;73.342;2023-07-13T07:47:30;99604.84;;;35.74;19.97
69737;BME280;64476;55.004;73.342;2023-07-13T07:50:32;99585.41;;;35.64;19.29
69737;BME280;64476;55.004;73.342;2023-07-13T07:53:43;99581.09;;;35.63;19.26
69737;BME280;64476;55.004;73.342;2023-07-13T07:56:45;99587.56;;;35.70;19.14
69737;BME280;64476;55.004;73.342;2023-07-13T07:59:47;99606.38;;;35.91;18.88
69737;BME280;64476;55.004;73.342;2023-07-13T08:02:49;99597.31;;;36.03;19.49
69737;BME280;64476;55.004;73.342;2023-07-13T08:05:55;99579.69;;;36.00;19.32
69737;BME280;64476;55.004;73.342;2023-07-13T08:08:56;99589.91;;;36.03;18.96
69737;BME280;64476;55.004;73.342;2023-07-13T08:11:58;99577.06;;;35.88;18.55
69737;BME280;64476;55.004;73.342;2023-07-13T08:15:02;99597.16;;;35.96;18.47
69737;BME280;64476;55.004;73.342;2023-07-13T08:18:07;99568.59;;;35.77;18.77
69737;BME280;64476;55.004;73.342;2023-07-13T08:21:10;99597.75;;;36.05;17.65
69737;BME280;64476;55.004;73.342;2023-07-13T08:24:12;99586.38;;;36.19;18.21
69737;BME280;64476;55.004;73.342;2023-07-13T08:27:14;99593.19;;;36.44;18.90
69737;BME280;64476;55.004;73.342;2023-07-13T08:30:15;99593.59;;;36.46;18.54
69737;BME280;64476;55.004;73.342;2023-07-13T08:33:21;99585.78;;;36.64;18.05
69737;BME280;64476;55.004;73.342;2023-07-13T08:36:25;99577.66;;;36.68;17.50
69737;BME280;64476;55.004;73.342;2023-07-13T08:39:30;99556.78;;;36.60;16.76
69737;BME280;64476;55.004;73.342;2023-07-13T08:49:41;99568.16;;;36.81;17.50
69737;BME280;64476;55.004;73.342;2023-07-13T08:52:48;99543.72;;;36.72;17.10
69737;BME280;64476;55.004;73.342;2023-07-13T08:55:57;99563.47;;;36.82;18.68
69737;BME280;64476;55.004;73.342;2023-07-13T08:59:05;99566.47;;;36.96;18.23
69737;BME280;64476;55.004;73.342;2023-07-13T09:02:26;99577.00;;;36.94;17.88
69737;BME280;64476;55.004;73.342;2023-07-13T09:05:40;99564.84;;;36.91;17.96
69737;BME280;64476;55.004;73.342;2023-07-13T09:08:55;99546.69;;;36.64;17.51
69737;BME280;64476;55.004;73.342;2023-07-13T09:12:09;99556.94;;;36.67;18.27
69737;BME280;64476;55.004;73.342;2023-07-13T09:22:15;99556.13;;;36.86;16.83
69737;BME280;64476;55.004;73.342;2023-07-13T09:28:26;99538.13;;;36.85;17.22
69737;BME280;64476;55.004;73.342;2023-07-13T09:31:39;99541.78;;;36.92;16.53
69737;BME280;64476;55.004;73.342;2023-07-13T09:35:24;99518.19;;;36.84;17.33
69737;BME280;64476;55.004;73.342;2023-07-13T09:38:29;99530.75;;;36.89;17.16
69737;BME280;64476;55.004;73.342;2023-07-13T09:41:40;99538.25;;;36.92;16.94
69737;BME280;64476;55.004;73.342;2023-07-13T09:44:54;99526.59;;;36.75;16.80
69737;BME280;64476;55.004;73.342;2023-07-13T09:48:11;99520.47;;;36.82;16.91
69737;BME280;64476;55.004;73.342;2023-07-13T09:51:45;99535.59;;;36.95;16.75
69737;BME280;64476;55.004;73.342;2023-07-13T09:54:49;99538.53;;;36.87;16.89
69737;BME280;64476;55.004;73.342;2023-07-13T09:57:53;99509.53;;;36.82;15.82
69737;BME280;64476;55.004;73.342;2023-07-13T10:01:01;99532.31;;;37.09;16.31
69737;BME280;64476;55.004;73.342;2023-07-13T10:04:12;99534.53;;;37.23;16.66
69737;BME280;64476;55.004;73.342;2023-07-13T10:07:15;99532.88;;;37.18;17.04
69737;BME280;64476;55.004;73.342;2023-07-13T10:10:22;99500.50;;;37.01;17.38
69737;BME280;64476;55.004;73.342;2023-07-13T10:13:27;99513.53;;;37.08;16.49
69737;BME280;64476;55.004;73.342;2023-07-13T10:16:33;99514.13;;;37.20;17.10
69737;BME280;64476;55.004;73.342;2023-07-13T10:19:35;99477.94;;;37.08;17.24
69737;BME280;64476;55.004;73.342;2023-07-13T10:22:45;99501.00;;;37.30;18.04
69737;BME280;64476;55.004;73.342;2023-07-13T10:25:51;99504.78;;;37.44;16.88
69737;BME280;64476;55.004;73.342;2023-07-13T10:28:54;99519.44;;;37.56;17.49
69737;BME280;64476;55.004;73.342;2023-07-13T10:31:57;99521.97;;;37.68;17.40
69737;BME280;64476;55.004;73.342;2023-07-13T10:34:59;99507.91;;;37.69;16.68
69737;BME280;64476;55.004;73.342;2023-07-13T10:38:33;99484.91;;;37.78;16.51
69737;BME280;64476;55.004;73.342;2023-07-13T10:45:48;99492.31;;;38.30;16.20
69737;BME280;64476;55.004;73.342;2023-07-13T10:48:59;99478.84;;;38.52;15.89
69737;BME280;64476;55.004;73.342;2023-07-13T10:52:03;99487.19;;;39.00;15.07
69737;BME280;64476;55.004;73.342;2023-07-13T10:55:05;99482.31;;;39.27;14.77
69737;BME280;64476;55.004;73.342;2023-07-13T10:58:15;99495.69;;;39.28;15.04
69737;BME280;64476;55.004;73.342;2023-07-13T11:01:20;99468.88;;;38.70;15.54
69737;BME280;64476;55.004;73.342;2023-07-13T11:04:25;99492.28;;;38.64;16.25
69737;BME280;64476;55.004;73.342;2023-07-13T11:07:52;99472.56;;;38.88;16.08
69737;BME280;64476;55.004;73.342;2023-07-13T11:14:42;99480.00;;;39.84;15.27
69737;BME280;64476;55.004;73.342;2023-07-13T11:17:54;99485.78;;;40.34;14.74
69737;BME280;64476;55.004;73.342;2023-07-13T11:31:13;99478.00;;;39.26;16.09
69737;BME280;64476;55.004;73.342;2023-07-13T11:34:18;99455.00;;;38.59;16.65
69737;BME280;64476;55.004;73.342;2023-07-13T11:37:23;99467.47;;;38.19;16.59
69737;BME280;64476;55.004;73.342;2023-07-13T11:40:27;99469.59;;;37.73;17.16
69737;BME280;64476;55.004;73.342;2023-07-13T11:43:31;99465.97;;;37.65;17.32
69737;BME280;64476;55.004;73.342;2023-07-13T11:46:35;99432.44;;;37.49;17.04
69737;BME280;64476;55.004;73.342;2023-07-13T11:53:19;99451.88;;;38.57;15.67
69737;BME280;64476;55.004;73.342;2023-07-13T11:57:24;99453.00;;;38.56;16.95
69737;BME280;64476;55.004;73.342;2023-07-13T12:00:40;99430.91;;;38.08;17.23
69737;BME280;64476;55.004;73.342;2023-07-13T12:03:42;99458.72;;;37.54;18.11
69737;BME280;64476;55.004;73.342;2023-07-13T12:06:44;99458.31;;;36.83;18.50
69737;BME280;64476;55.004;73.342;2023-07-13T12:09:47;99452.41;;;36.19;19.39
69737;BME280;64476;55.004;73.342;2023-07-13T12:12:55;99428.38;;;35.57;20.18
69737;BME280;64476;55.004;73.342;2023-07-13T12:16:29;99444.97;;;35.17;20.93
69737;BME280;64476;55.004;73.342;2023-07-13T12:19:31;99443.97;;;34.78;21.30
69737;BME280;64476;55.004;73.342;2023-07-13T12:23:14;99441.06;;;34.42;22.38
69737;BME280;64476;55.004;73.342;2023-07-13T12:30:30;99423.75;;;33.70;22.89
69737;BME280;64476;55.004;73.342;2023-07-13T12:33:35;99436.69;;;33.61;23.17
69737;BME280;64476;55.004;73.342;2023-07-13T12:37:16;99417.97;;;33.35;23.88
69737;BME280;64476;55.004;73.342;2023-07-13T12:40:20;99431.91;;;33.33;24.45
69737;BME280;64476;55.004;73.342;2023-07-13T12:43:24;99396.06;;;33.07;24.65
69737;BME280;64476;55.004;73.342;2023-07-13T12:47:09;99427.69;;;33.11;24.11
69737;BME280;64476;55.004;73.342;2023-07-13T12:54:18;99401.22;;;32.75;24.00
69737;BME280;64476;55.004;73.342;2023-07-13T12:57:27;99373.50;;;32.48;23.60
69737;BME280;64476;55.004;73.342;2023-07-13T13:00:32;99410.31;;;32.46;24.06
69737;BME280;64476;55.004;73.342;2023-07-13T13:03:37;99382.22;;;32.21;25.59
69737;BME280;64476;55.004;73.342;2023-07-13T13:06:39;99361.00;;;31.93;26.43
69737;BME280;64476;55.004;73.342;2023-07-13T13:10:15;99330.84;;;31.74;26.83
69737;BME280;64476;55.004;73.342;2023-07-13T13:13:19;99308.06;;;31.66;27.52
69737;BME280;64476;55.004;73.342;2023-07-13T13:19:56;99338.91;;;31.83;27.47
69737;BME280;64476;55.004;73.342;2023-07-13T13:23:00;99304.72;;;31.61;27.18
69737;BME280;64476;55.004;73.342;2023-07-13T13:26:02;99312.00;;;31.48;27.43
69737;BME280;64476;55.004;73.342;2023-07-13T13:29:11;99375.84;;;31.75;28.13
69737;BME280;64476;55.004;73.342;2023-07-13T13:32:15;99387.25;;;31.68;28.00
69737;BME280;64476;55.004;73.342;2023-07-13T13:35:20;99342.28;;;31.29;28.45
69737;BME280;64476;55.004;73.342;2023-07-13T13:38:27;99371.56;;;31.44;28.88
69737;BME280;64476;55.004;73.342;2023-07-13T13:41:28;99373.94;;;31.46;28.09
69737;BME280;64476;55.004;73.342;2023-07-13T13:44:30;99385.28;;;31.48;28.23
69737;BME280;64476;55.004;73.342;2023-07-13T13:47:32;99357.94;;;31.23;28.51
69737;BME280;64476;55.004;73.342;2023-07-13T13:50:44;99390.34;;;31.28;29.11
69737;BME280;64476;55.004;73.342;2023-07-13T13:53:46;99393.06;;;31.20;29.28
69737;BME280;64476;55.004;73.342;2023-07-13T13:56:50;99397.44;;;31.12;29.56
69737;BME280;64476;55.004;73.342;2023-07-13T13:59:52;99400.66;;;30.97;30.01
69737;BME280;64476;55.004;73.342;2023-07-13T14:02:54;99397.84;;;30.84;30.29
69737;BME280;64476;55.004;73.342;2023-07-13T14:05:58;99368.56;;;30.52;30.60
69737;BME280;64476;55.004;73.342;2023-07-13T14:09:00;99394.41;;;30.58;30.99
69737;BME280;64476;55.004;73.342;2023-07-13T14:12:04;99394.25;;;30.54;31.11
69737;BME280;64476;55.004;73.342;2023-07-13T14:15:18;99380.66;;;30.46;31.35
69737;BME280;64476;55.004;73.342;2023-07-13T14:18:21;99385.78;;;30.38;31.69
69737;BME280;64476;55.004;73.342;2023-07-13T14:21:27;99373.84;;;30.22;31.71
69737;BME280;64476;55.004;73.342;2023-07-13T14:25:04;99410.97;;;30.22;31.93
69737;BME280;64476;55.004;73.342;2023-07-13T14:28:38;99454.63;;;30.03;32.07
69737;BME280;64476;55.004;73.342;2023-07-13T14:31:43;99461.13;;;29.93;32.02
69737;BME280;64476;55.004;73.342;2023-07-13T14:34:45;99458.41;;;29.84;32.30
69737;BME280;64476;55.004;73.342;2023-07-13T14:37:47;99446.28;;;29.73;31.86
69737;BME280;64476;55.004;73.342;2023-07-13T14:40:49;99435.25;;;29.61;31.87
69737;BME280;64476;55.004;73.342;2023-07-13T14:43:51;99470.47;;;29.70;29.90
69737;BME280;64476;55.004;73.342;2023-07-13T14:46:57;99468.38;;;29.66;29.26
69737;BME280;64476;55.004;73.342;2023-07-13T14:49:59;99452.59;;;29.51;28.91
69737;BME280;64476;55.004;73.342;2023-07-13T14:53:04;99419.66;;;29.27;28.83
69737;BME280;64476;55.004;73.342;2023-07-13T14:56:11;99431.97;;;29.33;28.73
69737;BME280;64476;55.004;73.342;2023-07-13T14:59:13;99400.47;;;29.06;28.81
69737;BME280;64476;55.004;73.342;2023-07-13T15:05:57;99405.44;;;29.04;29.68
69737;BME280;64476;55.004;73.342;2023-07-13T15:09:02;99404.56;;;28.94;29.32
69737;BME280;64476;55.004;73.342;2023-07-13T15:12:05;99421.19;;;28.88;29.45
69737;BME280;64476;55.004;73.342;2023-07-13T15:15:07;99421.94;;;28.80;29.23
69737;BME280;64476;55.004;73.342;2023-07-13T15:18:21;99416.53;;;28.80;28.61
69737;BME280;64476;55.004;73.342;2023-07-13T15:21:24;99402.91;;;28.62;28.96
69737;BME280;64476;55.004;73.342;2023-07-13T15:24:26;99399.19;;;28.50;28.67
69737;BME280;64476;55.004;73.342;2023-07-13T15:27:28;99400.94;;;28.45;28.38
69737;BME280;64476;55.004;73.342;2023-07-13T15:30:34;99416.53;;;28.49;28.75
69737;BME280;64476;55.004;73.342;2023-07-13T15:34:15;99408.06;;;28.41;29.14
69737;BME280;64476;55.004;73.342;2023-07-13T15:37:48;99395.50;;;28.23;28.75
69737;BME280;64476;55.004;73.342;2023-07-13T15:40:52;99418.56;;;28.29;28.88
69737;BME280;64476;55.004;73.342;2023-07-13T15:43:56;99410.91;;;28.22;28.64
69737;BME280;64476;55.004;73.342;2023-07-13T15:47:01;99394.41;;;28.10;28.75
69737;BME280;64476;55.004;73.342;2023-07-13T15:50:04;99384.41;;;28.11;28.73
69737;BME280;64476;55.004;73.342;2023-07-13T15:53:09;99377.22;;;28.06;29.07
69737;BME280;64476;55.004;73.342;2023-07-13T15:56:20;99351.78;;;27.85;29.23
69737;BME280;64476;55.004;73.342;2023-07-13T15:59:24;99325.44;;;27.68;28.80
69737;BME280;64476;55.004;73.342;2023-07-13T16:02:25;99348.50;;;27.88;29.23
69737;BME280;64476;55.004;73.342;2023-07-13T16:05:28;99358.00;;;27.85;29.04
69737;BME280;64476;55.004;73.342;2023-07-13T16:08:31;99343.28;;;27.77;29.10
69737;BME280;64476;55.004;73.342;2023-07-13T16:11:37;99337.22;;;27.72;28.85
69737;BME280;64476;55.004;73.342;2023-07-13T16:14:40;99349.19;;;27.80;28.90
69737;BME280;64476;55.004;73.342;2023-07-13T16:17:44;99340.78;;;27.81;29.05
69737;BME280;64476;55.004;73.342;2023-07-13T16:20:49;99315.88;;;27.62;29.43
69737;BME280;64476;55.004;73.342;2023-07-13T16:23:52;99330.66;;;27.64;29.90
69737;BME280;64476;55.004;73.342;2023-07-13T16:26:54;99311.91;;;27.45;29.87
69737;BME280;64476;55.004;73.342;2023-07-13T16:29:58;99325.09;;;27.47;30.49
69737;BME280;64476;55.004;73.342;2023-07-13T16:33:01;99319.22;;;27.31;30.67
69737;BME280;64476;55.004;73.342;2023-07-13T16:36:10;99311.19;;;27.26;30.96
69737;BME280;64476;55.004;73.342;2023-07-13T16:42:59;99293.34;;;27.02;31.53
69737;BME280;64476;55.004;73.342;2023-07-13T16:46:01;99311.09;;;27.03;31.71
69737;BME280;64476;55.004;73.342;2023-07-13T16:49:16;99287.94;;;26.89;32.51
69737;BME280;64476;55.004;73.342;2023-07-13T16:56:01;99287.56;;;26.82;32.53
69737;BME280;64476;55.004;73.342;2023-07-13T16:59:15;99276.88;;;26.76;32.73
69737;BME280;64476;55.004;73.342;2023-07-13T17:02:31;99245.72;;;26.56;32.94
69737;BME280;64476;55.004;73.342;2023-07-13T17:05:38;99252.59;;;26.63;33.09
69737;BME280;64476;55.004;73.342;2023-07-13T17:08:42;99229.34;;;26.39;32.88
69737;BME280;64476;55.004;73.342;2023-07-13T17:11:43;99211.19;;;26.31;32.73
69737;BME280;64476;55.004;73.342;2023-07-13T17:14:48;99264.69;;;26.65;32.88
69737;BME280;64476;55.004;73.342;2023-07-13T17:17:50;99248.50;;;26.65;32.68
69737;BME280;64476;55.004;73.342;2023-07-13T17:20:52;99253.19;;;26.60;32.71
69737;BME280;64476;55.004;73.342;2023-07-13T17:23:54;99209.38;;;26.40;32.56
69737;BME280;64476;55.004;73.342;2023-07-13T17:27:27;99235.22;;;26.55;32.50
69737;BME280;64476;55.004;73.342;2023-07-13T17:30:29;99228.06;;;26.50;32.26
69737;BME280;64476;55.004;73.342;2023-07-13T17:33:37;99209.28;;;26.31;32.20